Time;durP1;ratioP1;P1;durP2;ratioP2;P2;SDS_P1;SDS_P2;PMS_P1;PMS_P2;Temp;Humidity;BMP_temperature;BMP_pressure;BME280_temperature;BME280_humidity;BME280_pressure;Samples;Min_cycle;Max_cycle;Signal;HPM_P1;HPM_P2
2023/09/16 14:15:08;;;;;;;8.77;6.63;;;;;;;32.87;33.30;100455.59;5119683;27;1368453;-77
2023/09/16 14:17:34;;;;;;;10.70;7.03;;;;;;;32.27;34.01;100450.22;5145963;27;20039;-77
2023/09/16 14:19:59;;;;;;;9.23;6.63;;;;;;;32.20;35.19;100435.09;5139492;27;20055;-77
2023/09/16 14:22:29;;;;;;;10.30;6.72;;;;;;;33.32;32.62;100437.59;5139423;27;20033;-80
2023/09/16 14:24:55;;;;;;;11.15;7.70;;;;;;;33.03;33.01;100448.03;5152694;27;20100;-78
2023/09/16 14:27:21;;;;;;;9.38;6.47;;;;;;;32.06;35.49;100443.03;5147739;27;20102;-78
2023/09/16 14:29:46;;;;;;;11.27;6.93;;;;;;;31.70;35.93;100416.44;5151137;27;20147;-79
2023/09/16 14:32:12;;;;;;;10.98;7.07;;;;;;;32.74;35.15;100439.13;5149167;27;20455;-78
2023/09/16 14:34:37;;;;;;;9.88;7.45;;;;;;;32.71;33.52;100439.84;5149971;27;20035;-79
2023/09/16 14:37:03;;;;;;;10.82;7.30;;;;;;;31.67;38.53;100439.19;5151401;27;20099;-78
2023/09/16 14:39:28;;;;;;;12.45;7.00;;;;;;;30.85;37.76;100427.38;5151539;27;20053;-78
2023/09/16 14:41:59;;;;;;;12.77;7.95;;;;;;;30.99;38.99;100427.03;5147829;27;20105;-79
2023/09/16 14:44:27;;;;;;;9.60;7.80;;;;;;;32.09;37.05;100413.91;5144047;27;20049;-79
2023/09/16 14:46:55;;;;;;;8.90;7.05;;;;;;;33.31;35.58;100430.50;5130361;27;20038;-77
2023/09/16 14:49:24;;;;;;;9.77;6.82;;;;;;;34.80;31.64;100414.88;5000515;22;20133;-77
2023/09/16 14:51:51;;;;;;;10.35;7.50;;;;;;;35.52;30.41;100437.13;5163082;23;20061;-76
2023/09/16 14:54:19;;;;;;;10.55;7.70;;;;;;;36.25;29.41;100437.44;5073572;28;20043;-77
2023/09/16 14:56:50;;;;;;;11.65;6.18;;;;;;;35.49;28.87;100433.16;5057081;28;20029;-74
2023/09/16 14:59:15;;;;;;;9.07;6.85;;;;;;;36.23;29.42;100431.50;5058738;28;20040;-77
2023/09/16 15:01:44;;;;;;;8.68;6.70;;;;;;;36.77;28.31;100438.19;5061818;28;20036;-78
2023/09/16 15:04:10;;;;;;;11.75;6.80;;;;;;;36.90;27.55;100437.84;5062439;28;20031;-78
2023/09/16 15:06:36;;;;;;;15.40;8.15;;;;;;;36.95;27.83;100434.72;5075054;28;20029;-78
2023/09/16 15:09:01;;;;;;;72.85;15.38;;;;;;;37.26;28.10;100435.25;5064510;28;20032;-81
2023/09/16 15:11:27;;;;;;;11.93;6.60;;;;;;;37.06;27.02;100432.75;5085532;28;20397;-78
2023/09/16 15:13:53;;;;;;;10.88;6.60;;;;;;;36.79;27.50;100429.47;5063445;28;20028;-82
2023/09/16 15:16:23;;;;;;;10.35;6.35;;;;;;;36.96;27.31;100416.84;5042870;28;20036;-78
2023/09/16 15:18:50;;;;;;;11.50;6.45;;;;;;;36.91;28.47;100395.78;5059148;28;20055;-78
2023/09/16 15:21:22;;;;;;;9.83;6.63;;;;;;;35.70;29.79;100415.16;5071295;28;20420;-78
2023/09/16 15:23:48;;;;;;;9.18;6.35;;;;;;;33.71;31.74;100418.22;5044862;28;20041;-78
2023/09/16 15:26:15;;;;;;;10.07;6.88;;;;;;;33.71;33.62;100407.16;5042981;28;20028;-77
2023/09/16 15:28:41;;;;;;;10.02;6.40;;;;;;;33.38;33.35;100403.78;5056519;28;20096;-78
2023/09/16 15:31:09;;;;;;;11.20;6.93;;;;;;;33.62;33.12;100413.72;5050215;28;20497;-81
2023/09/16 15:33:35;;;;;;;9.52;6.70;;;;;;;34.15;32.71;100417.81;5049288;28;20052;-77
2023/09/16 15:36:00;;;;;;;9.82;7.18;;;;;;;34.53;32.79;100422.38;5054136;28;20063;-79
2023/09/16 15:38:29;;;;;;;36.95;31.67;;;;;;;34.25;32.92;100402.56;5059176;28;20021;-77
2023/09/16 15:41:01;;;;;;;9.98;6.97;;;;;;;34.06;33.61;100414.47;5049282;28;20040;-78
2023/09/16 15:43:30;;;;;;;13.80;7.05;;;;;;;34.09;33.75;100422.06;5041894;28;20032;-79
2023/09/16 15:46:03;;;;;;;7.95;6.78;;;;;;;34.19;32.75;100430.53;5043701;28;20064;-80
2023/09/16 15:48:28;;;;;;;12.23;7.35;;;;;;;33.87;33.94;100429.19;5053577;28;20094;-80
2023/09/16 15:50:55;;;;;;;9.63;7.20;;;;;;;33.16;34.24;100424.69;5035713;28;20025;-79
2023/09/16 15:53:24;;;;;;;11.10;7.00;;;;;;;33.16;34.44;100424.69;5037381;28;20049;-80
2023/09/16 15:55:52;;;;;;;10.55;7.07;;;;;;;33.01;34.97;100422.75;5035155;28;20540;-81
2023/09/16 15:58:18;;;;;;;9.68;7.57;;;;;;;31.75;36.59;100417.00;5054852;28;20557;-80
2023/09/16 16:00:55;;;;;;;9.88;7.72;;;;;;;29.68;41.44;100411.38;5054483;28;20168;-85
2023/09/16 16:03:23;;;;;;;10.10;7.50;;;;;;;29.13;45.14;100419.63;5029103;28;20065;-79
2023/09/16 16:05:49;;;;;;;11.23;7.38;;;;;;;27.81;49.82;100407.66;5029368;28;20466;-80
2023/09/16 16:08:17;;;;;;;10.93;7.35;;;;;;;26.97;54.33;100418.03;5060808;28;20506;-84
2023/09/16 16:10:43;;;;;;;9.35;7.15;;;;;;;27.02;55.18;100411.59;5054568;28;20053;-81
2023/09/16 16:13:08;;;;;;;10.02;8.05;;;;;;;26.65;56.35;100405.59;5030728;28;20041;-81
2023/09/16 16:15:34;;;;;;;10.90;8.00;;;;;;;26.43;58.24;100418.19;5031164;28;20028;-83
2023/09/16 16:18:03;;;;;;;11.38;7.72;;;;;;;26.26;59.25;100399.81;5044431;28;20029;-84
2023/09/16 16:20:30;;;;;;;9.13;7.25;;;;;;;26.12;60.42;100406.53;5053681;28;20114;-78
2023/09/16 16:22:57;;;;;;;10.97;7.60;;;;;;;25.79;62.21;100412.28;5048162;28;20032;-79
2023/09/16 16:25:24;;;;;;;10.20;7.57;;;;;;;25.66;62.33;100406.56;5068512;28;20036;-79
2023/09/16 16:27:49;;;;;;;10.07;6.90;;;;;;;25.60;62.91;100424.22;5064394;28;20043;-81
2023/09/16 16:30:15;;;;;;;9.23;6.90;;;;;;;25.38;63.45;100411.34;5067074;28;20044;-79
2023/09/16 16:32:43;;;;;;;11.70;7.05;;;;;;;25.23;63.40;100422.63;5050072;28;20795;-80
2023/09/16 16:35:09;;;;;;;11.82;7.00;;;;;;;25.00;64.26;100436.19;5049555;28;20450;-79
2023/09/16 16:37:34;;;;;;;9.38;6.97;;;;;;;24.64;66.03;100436.97;5050242;28;20757;-80
2023/09/16 16:40:00;;;;;;;11.65;6.57;;;;;;;24.30;67.74;100440.06;5062983;28;20021;-79
2023/09/16 16:42:25;;;;;;;11.45;6.80;;;;;;;24.20;67.61;100432.88;5038827;28;20575;-79
2023/09/16 16:44:50;;;;;;;8.55;6.70;;;;;;;24.25;67.85;100442.88;5029537;28;20036;-78
2023/09/16 16:47:16;;;;;;;9.68;6.85;;;;;;;24.23;67.54;100428.75;5037726;28;20055;-80
2023/09/16 16:49:43;;;;;;;16.20;11.68;;;;;;;24.04;68.58;100437.81;5069515;28;20033;-79
2023/09/16 16:52:09;;;;;;;14.45;9.00;;;;;;;24.04;68.89;100448.72;5056628;28;20078;-79
2023/09/16 16:54:36;;;;;;;10.80;7.32;;;;;;;23.86;69.04;100433.22;5060285;28;20103;-80
2023/09/16 16:57:04;;;;;;;12.93;7.15;;;;;;;24.03;69.11;100457.19;5048964;28;20035;-78
2023/09/16 16:59:29;;;;;;;;;;;;;;;24.16;68.57;100461.06;5063542;28;20029;-78
2023/09/16 17:01:55;;;;;;;9.57;6.47;;;;;;;23.72;69.48;100440.53;5055235;28;19924;-80
2023/09/16 17:04:23;;;;;;;8.65;6.60;;;;;;;23.49;70.48;100423.22;5043490;28;20284;-79
2023/09/16 17:06:49;;;;;;;8.95;6.80;;;;;;;23.74;69.40;100457.38;5028072;28;20025;-79
2023/09/16 17:09:16;;;;;;;8.05;6.35;;;;;;;23.60;68.92;100444.53;5060203;28;20025;-78
2023/09/16 17:11:41;;;;;;;8.48;5.82;;;;;;;23.67;68.53;100444.16;5047745;28;20025;-79
2023/09/16 17:14:07;;;;;;;10.63;6.47;;;;;;;23.54;68.99;100469.38;5035537;28;20109;-79
2023/09/16 17:16:32;;;;;;;25.33;15.35;;;;;;;23.61;69.60;100476.09;5051531;28;20110;-81
2023/09/16 17:19:12;;;;;;;8.70;6.30;;;;;;;23.65;67.53;100473.59;5067608;28;20020;-79
2023/09/16 17:21:40;;;;;;;9.15;6.05;;;;;;;23.44;68.11;100478.53;5070607;28;20067;-80
2023/09/16 17:24:06;;;;;;;8.55;6.32;;;;;;;23.55;67.41;100479.19;5046983;28;20108;-78
2023/09/16 17:26:35;;;;;;;8.00;5.70;;;;;;;23.39;67.95;100475.88;5033921;28;20112;-81
2023/09/16 17:29:02;;;;;;;8.80;5.55;;;;;;;23.12;67.54;100465.66;5049712;28;20031;-81
2023/09/16 17:31:31;;;;;;;9.73;6.10;;;;;;;23.22;67.97;100498.16;5054266;28;20132;-79
2023/09/16 17:33:59;;;;;;;9.95;6.47;;;;;;;23.03;67.82;100495.44;5037326;28;20462;-80
2023/09/16 17:36:26;;;;;;;8.55;5.75;;;;;;;23.11;65.98;100474.91;5049655;28;20041;-80
2023/09/16 17:38:52;;;;;;;9.88;5.60;;;;;;;23.35;66.04;100502.88;5059978;28;20029;-80
2023/09/16 17:41:21;;;;;;;10.30;5.90;;;;;;;23.46;66.67;100515.25;5046940;28;20498;-80
2023/09/16 17:43:47;;;;;;;10.95;5.78;;;;;;;23.16;67.64;100500.13;5042359;28;20039;-80
2023/09/16 17:46:13;;;;;;;9.75;5.85;;;;;;;23.19;65.28;100498.75;5028314;28;20414;-79
2023/09/16 17:48:41;;;;;;;11.90;5.57;;;;;;;23.26;66.79;100516.31;5043111;28;20074;-80
2023/09/16 17:51:08;;;;;;;8.15;5.63;;;;;;;23.02;65.33;100504.69;5054965;28;20055;-79
2023/09/16 17:53:34;;;;;;;11.07;5.57;;;;;;;23.07;66.04;100507.34;5053058;28;20056;-78
2023/09/16 17:56:02;;;;;;;9.85;5.82;;;;;;;23.46;67.58;100525.31;5048196;28;20907;-80
2023/09/16 17:58:35;;;;;;;8.75;4.97;;;;;;;23.31;65.28;100539.94;5054635;28;20090;-79
2023/09/16 18:01:03;;;;;;;10.85;5.97;;;;;;;22.99;65.22;100532.44;5068597;28;20036;-79
2023/09/16 18:03:29;;;;;;;10.77;6.05;;;;;;;23.16;66.31;100532.78;5058593;28;20029;-81
2023/09/16 18:05:54;;;;;;;8.23;5.47;;;;;;;23.03;65.61;100539.75;5048872;28;20044;-79
2023/09/16 18:08:20;;;;;;;8.95;5.60;;;;;;;22.99;67.04;100527.00;5050369;28;20727;-79
2023/09/16 18:10:48;;;;;;;9.60;6.07;;;;;;;23.16;67.42;100551.84;5061728;28;20515;-80
2023/09/16 18:13:14;;;;;;;8.85;5.60;;;;;;;23.03;67.18;100547.91;5055768;28;20497;-79
2023/09/16 18:15:39;;;;;;;14.63;7.53;;;;;;;23.10;69.18;100550.28;5055950;28;20041;-82
2023/09/16 18:18:09;;;;;;;8.85;7.38;;;;;;;23.07;66.65;100545.44;5036330;28;20025;-79
2023/09/16 18:20:35;;;;;;;11.95;8.43;;;;;;;23.08;67.73;100551.69;5072738;28;20025;-79
2023/09/16 18:23:08;;;;;;;14.80;9.15;;;;;;;23.25;70.53;100560.97;5066366;28;20021;-80
2023/09/16 18:25:35;;;;;;;12.55;6.95;;;;;;;23.54;67.59;100565.50;5056538;28;20060;-81
2023/09/16 18:28:01;;;;;;;7.78;5.70;;;;;;;23.35;69.32;100551.06;5055785;28;20040;-79
2023/09/16 18:30:26;;;;;;;14.05;6.32;;;;;;;23.41;69.02;100577.09;5058580;28;20754;-82
2023/09/16 18:32:52;;;;;;;7.57;5.18;;;;;;;23.23;66.88;100546.84;5064604;28;20033;-81
2023/09/16 18:35:18;;;;;;;9.45;6.13;;;;;;;23.36;67.70;100563.56;5071192;28;20033;-80
2023/09/16 18:37:44;;;;;;;9.57;5.28;;;;;;;23.28;68.42;100584.06;5033168;28;20060;-79
2023/09/16 18:40:10;;;;;;;10.60;5.72;;;;;;;23.10;69.18;100565.78;5058880;28;20041;-80
2023/09/16 18:42:36;;;;;;;8.38;5.78;;;;;;;23.41;67.97;100568.94;5071742;28;20409;-80
2023/09/16 18:45:03;;;;;;;9.40;6.60;;;;;;;23.10;68.30;100566.59;5070625;28;20093;-79
2023/09/16 18:47:29;;;;;;;;;;;;;;;23.50;70.29;100569.91;5037310;28;20025;-79
2023/09/16 18:49:54;;;;;;;9.23;5.28;;;;;;;23.10;66.98;100561.16;5057740;28;20622;-79
2023/09/16 18:52:22;;;;;;;19.02;6.70;;;;;;;22.92;66.25;100551.00;5063618;28;20037;-81
2023/09/16 18:54:48;;;;;;;7.85;5.40;;;;;;;23.07;67.67;100561.75;5062358;28;20020;-80
2023/09/16 18:57:16;;;;;;;11.70;5.25;;;;;;;22.77;68.63;100547.38;5045918;28;20025;-79
2023/09/16 18:59:41;;;;;;;9.43;6.22;;;;;;;22.80;70.82;100565.84;5050999;28;20024;-80
2023/09/16 19:02:07;;;;;;;9.77;5.40;;;;;;;22.93;69.13;100560.81;5061814;28;20031;-80
2023/09/16 19:04:33;;;;;;;9.15;5.47;;;;;;;22.95;70.66;100561.31;5069098;28;20021;-80
2023/09/16 19:06:58;;;;;;;8.57;5.65;;;;;;;22.83;69.55;100572.59;5050614;28;20032;-80
2023/09/16 19:09:24;;;;;;;8.80;5.47;;;;;;;22.78;68.83;100562.59;5037062;28;20025;-79
2023/09/16 19:11:49;;;;;;;10.88;5.97;;;;;;;22.55;72.56;100552.50;5065021;28;20048;-80
2023/09/16 19:14:17;;;;;;;10.60;5.95;;;;;;;22.59;71.20;100569.84;5066336;28;20400;-80
2023/09/16 19:16:42;;;;;;;11.00;5.95;;;;;;;22.41;69.86;100555.06;5064884;28;20082;-80
2023/09/16 19:19:08;;;;;;;10.00;6.13;;;;;;;22.36;71.10;100568.72;5053705;28;20033;-80
2023/09/16 19:21:36;;;;;;;8.10;5.72;;;;;;;22.08;70.96;100546.63;5054373;28;20061;-80
2023/09/16 19:24:02;;;;;;;10.73;6.35;;;;;;;22.08;71.53;100558.28;5051297;28;20021;-80
2023/09/16 19:26:27;;;;;;;11.60;6.53;;;;;;;22.05;73.14;100563.50;5057609;28;20031;-81
2023/09/16 19:28:55;;;;;;;11.80;7.38;;;;;;;22.07;71.41;100558.59;5071966;28;20092;-80
2023/09/16 19:31:22;;;;;;;15.10;7.35;;;;;;;22.22;72.07;100563.09;5066312;28;20040;-81
2023/09/16 19:33:48;;;;;;;11.52;7.35;;;;;;;21.93;73.63;100561.13;5051228;28;20032;-80
2023/09/16 19:36:17;;;;;;;13.10;7.85;;;;;;;21.92;74.32;100558.69;5050842;28;20029;-80
2023/09/16 19:38:42;;;;;;;17.30;9.27;;;;;;;21.82;72.68;100560.41;5033075;28;20026;-81
2023/09/16 19:41:11;;;;;;;14.38;8.73;;;;;;;21.81;74.05;100579.69;5056835;28;20511;-83
2023/09/16 19:43:37;;;;;;;13.90;7.50;;;;;;;21.56;75.43;100565.19;5067671;28;20112;-80
2023/09/16 19:46:05;;;;;;;13.45;7.10;;;;;;;21.37;77.37;100570.41;5050933;28;20129;-80
2023/09/16 19:48:31;;;;;;;18.15;8.13;;;;;;;21.72;72.55;100582.19;5070815;28;20482;-80
2023/09/16 19:50:56;;;;;;;13.93;7.25;;;;;;;21.55;72.28;100568.16;5067281;28;20094;-80
2023/09/16 19:53:23;;;;;;;17.00;6.90;;;;;;;21.42;75.38;100585.84;5055922;28;20045;-80
2023/09/16 19:55:49;;;;;;;11.68;6.93;;;;;;;21.52;74.03;100582.31;5056348;28;20493;-80
2023/09/16 19:58:14;;;;;;;11.63;6.75;;;;;;;21.43;74.00;100590.19;5065759;28;20094;-80
2023/09/16 20:00:40;;;;;;;12.00;7.53;;;;;;;21.54;74.43;100597.22;5062963;28;20036;-79
2023/09/16 20:03:08;;;;;;;11.48;7.00;;;;;;;21.53;77.79;100601.00;5063767;28;20025;-81
2023/09/16 20:05:35;;;;;;;14.13;8.82;;;;;;;21.54;77.90;100586.34;5053300;28;20416;-80
2023/09/16 20:08:00;;;;;;;15.00;8.48;;;;;;;21.50;77.41;100579.88;5051599;28;20060;-80
2023/09/16 20:10:26;;;;;;;13.90;7.05;;;;;;;21.29;80.30;100573.69;5053420;28;20060;-80
2023/09/16 20:12:51;;;;;;;13.32;8.23;;;;;;;21.48;79.02;100587.47;5050897;28;20025;-82
2023/09/16 20:15:16;;;;;;;10.25;6.25;;;;;;;21.39;79.32;100599.94;5050695;28;20029;-80
2023/09/16 20:17:42;;;;;;;10.82;7.28;;;;;;;21.13;78.85;100564.81;5050807;28;20025;-80
2023/09/16 20:20:08;;;;;;;11.05;6.93;;;;;;;21.36;78.97;100595.09;5051627;28;20055;-81
2023/09/16 20:22:34;;;;;;;12.35;6.88;;;;;;;21.38;78.01;100585.56;5070050;28;20025;-80
2023/09/16 20:24:59;;;;;;;12.88;7.22;;;;;;;21.59;76.22;100604.50;5067363;28;20029;-80
2023/09/16 20:27:25;;;;;;;9.73;6.40;;;;;;;21.48;76.56;100606.47;5046448;28;20032;-80
2023/09/16 20:29:50;;;;;;;10.13;6.55;;;;;;;21.38;77.14;100587.50;5031158;28;20030;-80
2023/09/16 20:32:16;;;;;;;11.15;6.57;;;;;;;21.38;79.10;100587.50;5064069;28;20025;-80
2023/09/16 20:34:41;;;;;;;10.85;7.00;;;;;;;21.49;78.90;100616.22;5070893;28;20109;-80
2023/09/16 20:37:07;;;;;;;11.07;6.82;;;;;;;21.30;81.37;100582.63;5069276;28;20034;-80
2023/09/16 20:39:33;;;;;;;10.60;7.10;;;;;;;21.60;82.16;100606.94;5050701;28;20035;-82
2023/09/16 20:41:59;;;;;;;10.60;6.93;;;;;;;21.44;81.06;100614.34;5065066;28;20039;-80
2023/09/16 20:44:28;;;;;;;9.45;6.18;;;;;;;21.56;81.17;100607.78;5067654;28;20025;-80
2023/09/16 20:46:53;;;;;;;9.75;6.18;;;;;;;21.34;80.44;100619.78;5066172;28;20024;-81
2023/09/16 20:49:19;;;;;;;11.32;6.45;;;;;;;21.07;82.86;100614.72;5052612;28;20086;-81
2023/09/16 20:51:44;;;;;;;12.25;6.50;;;;;;;20.97;81.77;100618.28;5056665;28;20044;-80
2023/09/16 20:54:09;;;;;;;10.15;6.22;;;;;;;21.07;82.27;100620.16;5070523;28;20099;-80
2023/09/16 20:56:36;;;;;;;9.07;6.35;;;;;;;20.93;78.58;100610.97;5062614;28;20036;-82
2023/09/16 20:59:02;;;;;;;10.63;7.43;;;;;;;20.68;83.29;100604.50;5041467;28;20108;-80
2023/09/16 21:01:27;;;;;;;10.57;6.30;;;;;;;20.75;85.64;100607.72;5042534;28;20179;-80
2023/09/16 21:03:53;;;;;;;10.90;6.45;;;;;;;20.64;86.36;100579.03;5070093;28;20025;-79
2023/09/16 21:06:18;;;;;;;10.60;6.75;;;;;;;20.80;87.29;100594.19;5062133;28;20387;-81
2023/09/16 21:08:44;;;;;;;32.10;20.33;;;;;;;20.92;87.94;100593.06;5060740;28;20029;-80
2023/09/16 21:11:10;;;;;;;11.65;7.13;;;;;;;20.99;86.71;100580.03;5064206;28;20033;-81
2023/09/16 21:13:36;;;;;;;8.73;6.07;;;;;;;20.93;87.26;100579.22;5062222;28;20064;-80
2023/09/16 21:16:03;;;;;;;9.88;6.68;;;;;;;20.82;87.96;100578.47;5049780;28;20025;-79
2023/09/16 21:18:29;;;;;;;9.57;6.22;;;;;;;20.72;89.08;100574.94;5050507;28;20033;-80
2023/09/16 21:20:54;;;;;;;9.32;6.40;;;;;;;20.76;89.33;100587.69;5048924;28;20033;-81
2023/09/16 21:23:22;;;;;;;9.63;6.25;;;;;;;20.79;89.59;100580.91;5067706;28;20016;-80
2023/09/16 21:25:47;;;;;;;11.07;6.25;;;;;;;20.54;90.69;100581.72;5059190;28;20041;-79
2023/09/16 21:28:13;;;;;;;9.13;6.40;;;;;;;21.19;89.04;100584.59;5049805;28;20036;-79
2023/09/16 21:30:39;;;;;;;9.68;6.93;;;;;;;21.32;85.77;100604.88;5050213;28;20029;-79
2023/09/16 21:33:05;;;;;;;13.05;7.00;;;;;;;21.15;84.60;100600.59;5060879;28;20021;-80
2023/09/16 21:35:30;;;;;;;12.95;7.43;;;;;;;21.04;84.66;100597.13;5050242;28;20025;-80
2023/09/16 21:37:56;;;;;;;9.90;6.72;;;;;;;21.07;84.49;100593.03;5067215;28;20477;-80
2023/09/16 21:40:22;;;;;;;9.35;6.97;;;;;;;21.27;81.68;100603.81;5070363;28;20408;-80
2023/09/16 21:42:48;;;;;;;9.95;7.40;;;;;;;21.01;81.93;100611.22;5066108;28;20025;-79
2023/09/16 21:45:14;;;;;;;9.05;6.63;;;;;;;20.84;82.40;100605.25;5069307;28;20028;-79
2023/09/16 21:47:42;;;;;;;10.73;7.25;;;;;;;20.84;83.18;100603.38;5055920;28;20485;-78
2023/09/16 21:50:08;;;;;;;10.40;7.10;;;;;;;20.99;84.88;100618.81;5049845;28;20090;-81
2023/09/16 21:52:33;;;;;;;9.52;6.50;;;;;;;20.80;87.08;100596.06;5057098;28;20044;-81
2023/09/16 21:54:59;;;;;;;10.27;7.25;;;;;;;21.02;85.08;100612.84;5055367;28;20036;-79
2023/09/16 21:57:26;;;;;;;11.80;7.05;;;;;;;20.98;85.01;100610.94;5067826;28;20429;-80
2023/09/16 21:59:51;;;;;;;8.70;6.75;;;;;;;21.15;83.45;100614.16;5041634;28;20026;-79
2023/09/16 22:02:17;;;;;;;10.35;7.25;;;;;;;20.88;83.85;100606.34;5039563;28;20037;-79
2023/09/16 22:04:42;;;;;;;9.23;6.93;;;;;;;20.76;85.32;100617.50;5069185;28;20122;-80
2023/09/16 22:07:07;;;;;;;9.70;7.20;;;;;;;20.70;85.52;100594.19;5059964;28;20033;-78
2023/09/16 22:09:33;;;;;;;11.38;6.70;;;;;;;20.90;86.04;100608.78;5048973;28;20021;-81
2023/09/16 22:11:58;;;;;;;11.32;6.75;;;;;;;20.75;85.11;100605.03;5048290;28;20113;-78
2023/09/16 22:14:24;;;;;;;10.70;7.18;;;;;;;20.78;88.07;100612.63;5069445;28;20024;-78
2023/09/16 22:16:49;;;;;;;10.45;7.55;;;;;;;20.73;86.94;100620.75;5057681;28;20043;-80
2023/09/16 22:19:14;;;;;;;9.38;6.70;;;;;;;20.62;87.53;100602.88;5049338;28;20021;-79
2023/09/16 22:21:40;;;;;;;10.75;6.72;;;;;;;20.78;85.69;100618.03;5048721;28;20246;-78
2023/09/16 22:24:05;;;;;;;12.48;8.15;;;;;;;20.05;86.50;100581.19;5066959;28;20028;-79
2023/09/16 22:26:31;;;;;;;18.85;10.32;;;;;;;20.20;88.26;100593.09;5065416;28;20032;-78
2023/09/16 22:28:58;;;;;;;18.45;10.32;;;;;;;20.18;87.91;100577.13;5052760;28;20116;-78
2023/09/16 22:31:24;;;;;;;13.38;8.45;;;;;;;20.48;87.71;100605.31;5052765;28;20043;-78
2023/09/16 22:33:49;;;;;;;13.90;8.65;;;;;;;20.20;86.53;100584.97;5064934;28;20036;-81
2023/09/16 22:36:14;;;;;;;12.73;8.88;;;;;;;20.27;88.37;100588.25;5057148;28;20029;-79
2023/09/16 22:38:40;;;;;;;12.23;8.73;;;;;;;20.41;87.44;100592.03;5056518;28;20571;-78
2023/09/16 22:41:05;;;;;;;11.73;7.75;;;;;;;20.49;88.42;100604.19;5034611;28;20025;-77
2023/09/16 22:43:31;;;;;;;14.35;8.40;;;;;;;20.26;90.19;100605.56;5050467;28;20028;-77
2023/09/16 22:45:56;;;;;;;12.15;8.35;;;;;;;20.18;89.70;100592.56;5072772;28;20477;-82
2023/09/16 22:48:22;;;;;;;12.10;8.02;;;;;;;20.18;89.98;100592.56;5071009;28;20028;-78
2023/09/16 22:50:50;;;;;;;9.75;7.55;;;;;;;20.21;90.18;100602.88;5042700;28;20464;-78
2023/09/16 22:53:16;;;;;;;11.65;7.93;;;;;;;20.40;89.83;100606.66;5043580;28;20040;-78
2023/09/16 22:55:42;;;;;;;10.57;8.15;;;;;;;20.41;88.13;100613.72;5060765;28;20029;-78
2023/09/16 22:58:07;;;;;;;11.10;8.40;;;;;;;20.48;89.41;100608.81;5068671;28;20112;-78
2023/09/16 23:00:33;;;;;;;13.73;9.27;;;;;;;20.67;88.98;100622.63;5059460;28;20029;-78
2023/09/16 23:03:04;;;;;;;12.23;8.48;;;;;;;20.44;89.08;100617.75;5050085;28;20033;-78
2023/09/16 23:05:29;;;;;;;14.63;8.98;;;;;;;20.34;89.93;100610.44;5061306;28;20039;-77
2023/09/16 23:07:55;;;;;;;14.93;9.68;;;;;;;20.56;88.88;100620.19;5058502;28;20033;-78
2023/09/16 23:10:21;;;;;;;13.48;9.05;;;;;;;20.69;87.07;100606.13;5052003;28;20128;-79
2023/09/16 23:12:47;;;;;;;11.25;8.88;;;;;;;20.52;88.55;100619.13;5051940;28;20091;-79
2023/09/16 23:15:14;;;;;;;12.25;9.20;;;;;;;20.26;89.82;100611.78;5065606;28;20029;-78
2023/09/16 23:17:42;;;;;;;11.45;8.73;;;;;;;20.63;88.45;100610.72;5050083;28;20033;-78
2023/09/16 23:20:08;;;;;;;10.88;8.50;;;;;;;20.66;87.09;100609.38;5050809;28;20116;-78
2023/09/16 23:22:36;;;;;;;13.50;9.27;;;;;;;20.53;87.38;100608.00;5051739;28;20103;-79
2023/09/16 23:25:02;;;;;;;11.15;8.35;;;;;;;20.48;89.15;100608.00;5065376;28;20481;-79
2023/09/16 23:27:29;;;;;;;10.00;8.70;;;;;;;20.40;89.42;100601.22;5051804;28;20040;-79
2023/09/16 23:29:55;;;;;;;13.48;8.00;;;;;;;20.77;88.17;100610.97;5065716;28;20064;-78
2023/09/16 23:32:20;;;;;;;12.52;7.95;;;;;;;20.46;88.81;100602.84;5032271;28;20663;-78
2023/09/16 23:34:46;;;;;;;11.57;8.02;;;;;;;20.31;90.72;100611.00;5057587;28;20032;-78
2023/09/16 23:37:11;;;;;;;11.57;8.05;;;;;;;20.39;89.59;100609.63;5050871;28;20037;-79
2023/09/16 23:39:36;;;;;;;12.48;9.18;;;;;;;20.23;90.87;100595.28;5051352;28;20438;-78
2023/09/16 23:42:02;;;;;;;14.25;8.70;;;;;;;20.30;90.91;100612.06;5069739;28;20496;-79
2023/09/16 23:44:27;;;;;;;12.70;9.05;;;;;;;20.09;91.26;100610.44;5066737;28;20021;-78
2023/09/16 23:46:55;;;;;;;12.82;8.50;;;;;;;20.21;90.82;100617.22;5055962;28;20037;-78
2023/09/16 23:49:24;;;;;;;13.10;7.88;;;;;;;20.05;91.49;100608.25;5044225;28;20067;-78
2023/09/16 23:51:50;;;;;;;12.90;8.85;;;;;;;19.91;91.76;100595.50;5049990;28;20522;-80
2023/09/16 23:54:15;;;;;;;11.10;8.13;;;;;;;20.13;91.54;100617.75;5053264;28;20032;-78
2023/09/16 23:56:41;;;;;;;10.45;8.45;;;;;;;20.00;91.01;100621.78;5063710;28;20033;-78
2023/09/16 23:59:08;;;;;;;14.18;8.98;;;;;;;20.00;91.79;100619.09;5053704;28;20418;-79
